createdAt,value
2019-03-01T00:00:36.348Z,-1.80
2019-03-01T00:03:09.627Z,-1.80
2019-03-01T00:06:08.232Z,-1.90
2019-03-01T00:09:31.426Z,-1.90
2019-03-01T00:12:18.832Z,-1.90
2019-03-01T00:15:36.391Z,-2.00
2019-03-01T00:18:54.027Z,-2.00
2019-03-01T00:22:09.876Z,-2.00
2019-03-01T00:25:12.988Z,-2.00
2019-03-01T00:28:25.253Z,-2.00
2019-03-01T00:31:45.824Z,-2.00
2019-03-01T00:34:31.054Z,-2.00
2019-03-01T00:37:48.532Z,-2.00
2019-03-01T00:41:18.328Z,-2.00
2019-03-01T00:44:34.033Z,-2.00
2019-03-01T00:47:04.609Z,-2.00
2019-03-01T00:49:35.016Z,-1.90
2019-03-01T00:52:06.024Z,-2.00
2019-03-01T00:54:36.452Z,-2.00
2019-03-01T00:57:07.478Z,-2.00
2019-03-01T00:59:37.952Z,-2.00
2019-03-01T01:02:08.391Z,-2.10
2019-03-01T01:04:38.820Z,-2.20
2019-03-01T01:07:10.492Z,-2.20
2019-03-01T01:09:40.904Z,-2.20
2019-03-01T01:12:11.264Z,-2.20
2019-03-01T01:14:41.638Z,-2.30
2019-03-01T01:17:12.120Z,-2.30
2019-03-01T01:19:42.593Z,-2.30
2019-03-01T01:22:12.979Z,-2.40
2019-03-01T01:24:43.452Z,-2.40
2019-03-01T01:27:13.954Z,-2.40
2019-03-01T01:29:44.373Z,-2.40
2019-03-01T01:32:15.688Z,-2.40
2019-03-01T01:34:46.114Z,-2.40
2019-03-01T01:37:16.690Z,-2.40
2019-03-01T01:39:47.059Z,-2.30
2019-03-01T01:42:17.637Z,-2.40
2019-03-01T01:44:48.152Z,-2.40
2019-03-01T01:47:18.616Z,-2.40
2019-03-01T01:49:49.060Z,-2.30
2019-03-01T01:52:19.636Z,-2.20
2019-03-01T01:54:50.220Z,-2.30
2019-03-01T01:57:20.738Z,-2.20
2019-03-01T01:59:51.083Z,-2.20
2019-03-01T02:02:21.428Z,-2.10
2019-03-01T02:04:51.832Z,-2.20
2019-03-01T02:07:22.377Z,-2.20
2019-03-01T02:09:52.860Z,-2.20
2019-03-01T02:12:23.475Z,-2.10
2019-03-01T02:14:53.940Z,-2.00
2019-03-01T02:17:24.432Z,-2.00
2019-03-01T02:19:54.820Z,-2.10
2019-03-01T02:22:25.402Z,-2.10
2019-03-01T02:24:56.032Z,-2.00
2019-03-01T02:27:30.369Z,-2.00
2019-03-01T02:30:01.818Z,-2.00
2019-03-01T02:32:41.215Z,-2.00
2019-03-01T02:35:13.562Z,-2.00
2019-03-01T02:37:44.319Z,-2.00
2019-03-01T02:40:15.021Z,-2.10
2019-03-01T02:42:45.731Z,-2.10
2019-03-01T02:45:17.853Z,-2.10
2019-03-01T02:47:48.389Z,-2.10
2019-03-01T02:50:19.213Z,-2.20
2019-03-01T02:52:50.091Z,-2.20
2019-03-01T02:55:21.077Z,-2.20
2019-03-01T02:57:51.772Z,-2.30
2019-03-01T03:00:24.042Z,-2.30
2019-03-01T03:02:54.569Z,-2.30
2019-03-01T03:05:25.050Z,-2.30
2019-03-01T03:08:06.287Z,-2.40
2019-03-01T03:10:37.121Z,-2.40
2019-03-01T03:13:09.645Z,-2.40
2019-03-01T03:15:45.585Z,-2.40
2019-03-01T03:18:16.202Z,-2.40
2019-03-01T03:20:46.598Z,-2.50
2019-03-01T03:23:17.181Z,-2.50
2019-03-01T03:25:47.785Z,-2.50
2019-03-01T03:28:18.305Z,-2.50
2019-03-01T03:30:48.681Z,-2.50
2019-03-01T03:33:19.255Z,-2.50
2019-03-01T03:35:49.610Z,-2.60
2019-03-01T03:38:20.186Z,-2.60
2019-03-01T03:40:50.655Z,-2.70
2019-03-01T03:43:22.833Z,-2.60
2019-03-01T03:45:53.362Z,-2.70
2019-03-01T03:48:23.797Z,-2.70
2019-03-01T03:50:54.213Z,-2.70
2019-03-01T03:53:24.592Z,-2.80
2019-03-01T03:55:55.418Z,-2.70
2019-03-01T03:58:25.771Z,-2.50
2019-03-01T04:00:56.138Z,-2.40
2019-03-01T04:03:27.933Z,-2.50
2019-03-01T04:05:58.505Z,-2.50
2019-03-01T04:08:28.945Z,-2.60
2019-03-01T04:10:59.780Z,-2.60
2019-03-01T04:13:30.231Z,-2.60
2019-03-01T04:16:00.701Z,-2.40
2019-03-01T04:18:31.240Z,-2.40
2019-03-01T04:21:01.658Z,-2.50
2019-03-01T04:23:32.298Z,-2.50
2019-03-01T04:26:02.674Z,-2.40
2019-03-01T04:28:33.351Z,-2.40
2019-03-01T04:31:04.591Z,-2.30
2019-03-01T04:33:35.025Z,-2.20
2019-03-01T04:36:05.342Z,-2.10
2019-03-01T04:38:35.664Z,-2.00
2019-03-01T04:41:06.457Z,-1.80
2019-03-01T04:43:36.918Z,-1.70
2019-03-01T04:46:07.400Z,-1.70
2019-03-01T04:48:37.989Z,-1.70
2019-03-01T04:51:10.177Z,-1.60
2019-03-01T04:53:41.089Z,-1.50
2019-03-01T04:56:11.749Z,-1.40
2019-03-01T04:58:42.540Z,-1.30
2019-03-01T05:01:13.205Z,-1.20
2019-03-01T05:03:43.900Z,-1.10
2019-03-01T05:06:14.384Z,-1.00
2019-03-01T05:08:45.092Z,-0.90
2019-03-01T05:11:15.714Z,-0.70
2019-03-01T05:13:46.036Z,-0.60
2019-03-01T05:16:16.728Z,-0.60
2019-03-01T05:18:48.008Z,-0.50
2019-03-01T05:21:18.463Z,-0.50
2019-03-01T05:23:49.000Z,-0.40
2019-03-01T05:26:19.873Z,-0.30
2019-03-01T05:28:50.334Z,-0.30
2019-03-01T05:31:20.708Z,-0.30
2019-03-01T05:33:51.208Z,-0.20
2019-03-01T05:36:21.592Z,-0.10
2019-03-01T05:38:52.072Z,-0.10
2019-03-01T05:41:22.528Z,0.00
2019-03-01T05:43:53.100Z,0.10
2019-03-01T05:46:23.605Z,0.20
2019-03-01T05:48:54.256Z,0.20
2019-03-01T05:51:24.803Z,0.20
2019-03-01T05:53:55.648Z,0.20
2019-03-01T05:56:27.185Z,0.20
2019-03-01T05:59:09.460Z,0.20
2019-03-01T06:02:19.164Z,0.20
2019-03-01T06:04:53.105Z,0.30
2019-03-01T06:08:04.880Z,0.30
2019-03-01T06:10:47.062Z,0.30
2019-03-01T06:14:03.264Z,0.30
2019-03-01T06:17:12.293Z,0.30
2019-03-01T06:20:35.936Z,0.30
2019-03-01T06:23:28.352Z,0.10
2019-03-01T06:26:34.928Z,0.00
2019-03-01T06:29:42.825Z,-0.10
2019-03-01T06:32:39.196Z,-0.20
2019-03-01T06:35:34.632Z,-0.40
2019-03-01T06:39:28.358Z,-0.40
2019-03-01T06:42:40.024Z,-0.30
2019-03-01T06:46:00.371Z,-0.40
2019-03-01T06:48:51.216Z,-0.40
2019-03-01T06:51:29.153Z,-0.50
2019-03-01T06:53:59.724Z,-0.50
2019-03-01T06:56:30.893Z,-0.30
2019-03-01T06:59:03.318Z,-0.30
2019-03-01T07:01:42.555Z,-0.20
2019-03-01T07:04:17.997Z,0.00
2019-03-01T07:06:48.621Z,0.20
2019-03-01T07:09:20.435Z,0.40
2019-03-01T07:11:51.031Z,0.50
2019-03-01T07:14:22.205Z,0.70
2019-03-01T07:16:52.776Z,0.90
2019-03-01T07:19:23.529Z,1.10
2019-03-01T07:21:54.036Z,1.30
2019-03-01T07:24:24.568Z,1.40
2019-03-01T07:26:55.189Z,1.60
2019-03-01T07:29:25.680Z,1.70
2019-03-01T07:31:56.222Z,1.80
2019-03-01T07:34:26.681Z,1.90
2019-03-01T07:36:56.997Z,2.00
2019-03-01T07:39:27.657Z,2.00
2019-03-01T07:41:57.989Z,2.10
2019-03-01T07:44:28.960Z,2.10
2019-03-01T07:46:59.379Z,2.00
2019-03-01T07:49:29.732Z,2.10
2019-03-01T07:52:01.732Z,2.20
2019-03-01T07:54:32.232Z,2.40
2019-03-01T07:57:02.820Z,2.50
2019-03-01T07:59:37.941Z,2.60
2019-03-01T08:02:06.789Z,2.60
2019-03-01T08:04:37.270Z,2.50
2019-03-01T08:07:07.779Z,2.30
2019-03-01T08:09:41.277Z,2.20
2019-03-01T08:12:10.432Z,2.20
2019-03-01T08:14:41.202Z,2.10
2019-03-01T08:17:11.639Z,2.10
2019-03-01T08:19:42.087Z,2.20
2019-03-01T08:22:12.658Z,2.30
2019-03-01T08:24:46.622Z,2.40
2019-03-01T08:27:15.866Z,2.40
2019-03-01T08:29:46.732Z,2.50
2019-03-01T08:32:17.298Z,2.60
2019-03-01T08:34:49.920Z,2.70
2019-03-01T08:37:20.016Z,2.80
2019-03-01T08:39:50.349Z,2.90
2019-03-01T08:42:20.977Z,3.10
2019-03-01T08:44:54.662Z,3.20
2019-03-01T08:47:24.634Z,3.30
2019-03-01T08:49:56.120Z,3.40
2019-03-01T08:52:26.725Z,3.50
2019-03-01T08:55:00.355Z,3.60
2019-03-01T08:57:29.357Z,3.70
2019-03-01T09:00:00.908Z,3.90
2019-03-01T09:02:32.851Z,4.00
2019-03-01T09:05:05.261Z,4.10
2019-03-01T09:07:35.552Z,4.30
2019-03-01T09:10:06.288Z,4.50
2019-03-01T09:12:36.814Z,4.80
2019-03-01T09:15:08.414Z,5.20
2019-03-01T09:17:39.164Z,5.30
2019-03-01T09:20:11.230Z,5.40
2019-03-01T09:22:41.789Z,5.40
2019-03-01T09:25:12.643Z,5.40
2019-03-01T09:27:47.045Z,5.40
2019-03-01T09:30:22.084Z,5.40
2019-03-01T09:32:52.655Z,5.50
2019-03-01T09:35:39.889Z,5.60
2019-03-01T09:38:11.685Z,5.80
2019-03-01T09:40:42.284Z,5.90
2019-03-01T09:43:13.140Z,6.00
2019-03-01T09:45:45.655Z,6.00
2019-03-01T09:48:16.073Z,6.10
2019-03-01T09:50:46.646Z,6.20
2019-03-01T09:53:17.360Z,6.30
2019-03-01T09:55:47.976Z,6.40
2019-03-01T09:58:18.729Z,6.50
2019-03-01T10:00:56.350Z,6.80
2019-03-01T10:03:24.997Z,7.00
2019-03-01T10:05:55.660Z,7.30
2019-03-01T10:08:26.151Z,7.40
2019-03-01T10:10:56.718Z,7.60
2019-03-01T10:13:27.151Z,7.60
2019-03-01T10:15:58.056Z,7.40
2019-03-01T10:18:29.642Z,7.20
2019-03-01T10:21:00.261Z,6.90
2019-03-01T10:23:30.824Z,6.90
2019-03-01T10:26:01.590Z,7.10
2019-03-01T10:28:31.972Z,7.20
2019-03-01T10:31:02.628Z,7.20
2019-03-01T10:33:33.244Z,7.20
2019-03-01T10:36:03.800Z,7.30
2019-03-01T10:38:35.408Z,7.20
2019-03-01T10:41:06.076Z,7.10
2019-03-01T10:43:36.659Z,7.00
2019-03-01T10:46:07.504Z,7.10
2019-03-01T10:48:37.981Z,7.10
2019-03-01T10:51:08.471Z,7.10
2019-03-01T10:53:39.241Z,7.10
2019-03-01T10:56:09.695Z,7.20
2019-03-01T10:58:40.321Z,7.20
2019-03-01T11:01:10.983Z,7.20
2019-03-01T11:03:41.453Z,7.30
2019-03-01T11:06:11.856Z,7.40
2019-03-01T11:08:42.395Z,7.40
2019-03-01T11:11:12.761Z,7.50
2019-03-01T11:13:43.680Z,7.60
2019-03-01T11:16:14.502Z,7.60
2019-03-01T11:18:45.028Z,7.60
2019-03-01T11:21:15.484Z,7.70
2019-03-01T11:23:45.996Z,7.70
2019-03-01T11:26:16.487Z,7.80
2019-03-01T11:28:47.204Z,7.90
2019-03-01T11:31:17.712Z,8.00
2019-03-01T11:33:48.268Z,8.00
2019-03-01T11:36:18.672Z,7.60
2019-03-01T11:38:49.140Z,7.30
2019-03-01T11:41:19.439Z,7.00
2019-03-01T11:43:50.241Z,7.20
2019-03-01T11:46:20.840Z,7.30
2019-03-01T11:48:51.507Z,7.30
2019-03-01T11:51:21.888Z,7.40
2019-03-01T11:53:52.464Z,7.50
2019-03-01T11:56:22.872Z,7.60
2019-03-01T11:58:53.380Z,7.70
2019-03-01T12:01:23.956Z,7.80
2019-03-01T12:03:54.549Z,7.80
2019-03-01T12:06:24.880Z,7.80
2019-03-01T12:08:55.649Z,7.90
2019-03-01T12:11:26.044Z,10.20
2019-03-01T12:13:56.864Z,12.50
2019-03-01T12:16:27.737Z,14.20
2019-03-01T12:19:01.145Z,15.60
2019-03-01T12:21:31.643Z,17.00
2019-03-01T12:24:02.340Z,17.40
2019-03-01T12:26:32.636Z,17.10
2019-03-01T12:29:03.381Z,16.50
2019-03-01T12:31:33.836Z,17.60
2019-03-01T12:34:04.700Z,18.20
2019-03-01T12:36:35.387Z,19.00
2019-03-01T12:39:11.905Z,20.20
2019-03-01T12:41:43.043Z,20.40
2019-03-01T12:44:14.201Z,21.10
2019-03-01T12:46:45.264Z,20.90
2019-03-01T12:49:18.865Z,20.10
2019-03-01T12:51:49.559Z,19.90
2019-03-01T12:54:23.426Z,19.70
2019-03-01T12:56:54.260Z,20.50
2019-03-01T12:59:24.980Z,21.50
2019-03-01T13:01:55.805Z,22.60
2019-03-01T13:04:27.347Z,21.60
2019-03-01T13:06:57.887Z,22.30
2019-03-01T13:09:28.767Z,20.80
2019-03-01T13:11:59.344Z,21.50
2019-03-01T13:14:30.149Z,20.20
2019-03-01T13:17:03.532Z,19.10
2019-03-01T13:19:34.404Z,17.30
2019-03-01T13:22:04.932Z,16.50
2019-03-01T13:24:36.173Z,15.40
2019-03-01T13:27:08.136Z,13.80
2019-03-01T13:29:39.096Z,12.90
2019-03-01T13:32:10.064Z,12.10
2019-03-01T13:34:40.452Z,12.20
2019-03-01T13:37:15.199Z,11.70
2019-03-01T13:39:45.067Z,11.60
2019-03-01T13:42:15.724Z,12.10
2019-03-01T13:44:46.529Z,12.50
2019-03-01T13:47:17.388Z,12.50
2019-03-01T13:49:48.173Z,12.40
2019-03-01T13:52:18.966Z,12.00
2019-03-01T13:54:49.764Z,11.70
2019-03-01T13:57:20.244Z,11.10
2019-03-01T13:59:51.201Z,10.90
2019-03-01T14:02:22.692Z,10.50
2019-03-01T14:04:53.417Z,10.20
2019-03-01T14:07:23.896Z,9.80
2019-03-01T14:09:54.652Z,9.60
2019-03-01T14:12:25.144Z,9.60
2019-03-01T14:14:55.640Z,9.50
2019-03-01T14:17:26.253Z,9.40
2019-03-01T14:19:57.025Z,9.30
2019-03-01T14:22:27.316Z,9.30
2019-03-01T14:24:58.004Z,9.20
2019-03-01T14:27:29.684Z,9.10
2019-03-01T14:30:01.958Z,9.10
2019-03-01T14:32:32.660Z,9.00
2019-03-01T14:35:03.415Z,9.00
2019-03-01T14:37:33.761Z,8.90
2019-03-01T14:40:04.774Z,8.80
2019-03-01T14:42:35.610Z,8.70
2019-03-01T14:45:09.660Z,8.50
2019-03-01T14:47:40.747Z,8.30
2019-03-01T14:50:13.062Z,8.10
2019-03-01T14:52:43.461Z,8.00
2019-03-01T14:55:19.831Z,8.00
2019-03-01T14:57:52.631Z,8.00
2019-03-01T15:00:29.849Z,8.00
2019-03-01T15:03:33.339Z,8.00
2019-03-01T15:06:04.397Z,8.00
2019-03-01T15:08:34.912Z,7.90
2019-03-01T15:11:09.144Z,7.90
2019-03-01T15:13:39.745Z,7.90
2019-03-01T15:16:10.454Z,7.80
2019-03-01T15:18:41.524Z,7.70
2019-03-01T15:21:13.115Z,7.60
2019-03-01T15:23:43.519Z,7.60
2019-03-01T15:26:15.232Z,7.50
2019-03-01T15:28:54.336Z,7.30
2019-03-01T15:31:23.011Z,7.20
2019-03-01T15:33:53.452Z,7.10
2019-03-01T15:36:24.118Z,7.00
2019-03-01T15:38:54.546Z,6.80
2019-03-01T15:41:25.263Z,6.70
2019-03-01T15:43:55.732Z,6.50
2019-03-01T15:46:26.240Z,6.30
2019-03-01T15:48:56.816Z,6.10
2019-03-01T15:51:27.283Z,5.90
2019-03-01T15:54:00.929Z,5.80
2019-03-01T15:56:29.835Z,5.60
2019-03-01T15:59:00.364Z,5.50
2019-03-01T16:01:30.673Z,5.40
2019-03-01T16:04:01.471Z,5.20
2019-03-01T16:06:32.024Z,5.10
2019-03-01T16:09:02.762Z,4.90
2019-03-01T16:11:34.786Z,4.90
2019-03-01T16:14:05.503Z,4.80
2019-03-01T16:16:35.921Z,4.80
2019-03-01T16:19:06.453Z,4.70
2019-03-01T16:21:39.807Z,4.70
2019-03-01T16:24:09.240Z,4.60
2019-03-01T16:26:39.588Z,4.50
2019-03-01T16:29:10.184Z,4.40
2019-03-01T16:31:40.508Z,4.30
2019-03-01T16:34:11.171Z,4.10
2019-03-01T16:36:44.210Z,3.90
2019-03-01T16:39:16.465Z,3.80
2019-03-01T16:41:47.066Z,3.70
2019-03-01T16:44:17.745Z,3.70
2019-03-01T16:46:48.582Z,3.70
2019-03-01T16:49:19.642Z,3.50
2019-03-01T16:51:50.631Z,3.40
2019-03-01T16:54:22.492Z,3.30
2019-03-01T16:56:53.926Z,3.10
2019-03-01T16:59:24.799Z,3.10
2019-03-01T17:01:55.304Z,3.10
2019-03-01T17:04:27.439Z,3.10
2019-03-01T17:06:58.309Z,3.00
2019-03-01T17:09:29.179Z,2.90
2019-03-01T17:11:59.891Z,2.80
2019-03-01T17:14:30.496Z,2.80
2019-03-01T17:17:01.213Z,2.60
2019-03-01T17:19:31.647Z,2.40
2019-03-01T17:22:02.188Z,2.20
2019-03-01T17:24:32.830Z,2.10
2019-03-01T17:27:05.735Z,1.90
2019-03-01T17:29:35.687Z,1.80
2019-03-01T17:32:07.692Z,1.60
2019-03-01T17:34:38.593Z,1.50
2019-03-01T17:37:08.969Z,1.50
2019-03-01T17:39:39.496Z,1.40
2019-03-01T17:42:09.860Z,1.50
2019-03-01T17:44:41.385Z,1.50
2019-03-01T17:47:13.292Z,1.40
2019-03-01T17:49:43.800Z,1.30
2019-03-01T17:52:14.394Z,1.20
2019-03-01T17:54:45.145Z,1.10
2019-03-01T17:57:15.542Z,1.10
2019-03-01T17:59:48.278Z,1.10
2019-03-01T18:02:18.241Z,1.00
2019-03-01T18:04:48.964Z,0.90
2019-03-01T18:07:19.460Z,0.90
2019-03-01T18:09:51.895Z,0.80
2019-03-01T18:12:22.789Z,0.80
2019-03-01T18:14:53.320Z,0.70
2019-03-01T18:17:24.038Z,0.70
2019-03-01T18:19:55.124Z,0.60
2019-03-01T18:22:26.427Z,0.50
2019-03-01T18:24:58.230Z,0.20
2019-03-01T18:27:28.640Z,0.30
2019-03-01T18:30:00.363Z,0.20
2019-03-01T18:32:30.849Z,0.20
2019-03-01T18:35:02.660Z,0.20
2019-03-01T18:37:33.133Z,0.20
2019-03-01T18:40:03.881Z,0.10
2019-03-01T18:42:38.134Z,0.00
2019-03-01T18:45:08.465Z,-0.10
2019-03-01T18:47:38.920Z,-0.10
2019-03-01T18:50:15.711Z,0.00
2019-03-01T18:52:49.523Z,-0.10
2019-03-01T18:55:18.721Z,-0.10
2019-03-01T18:57:49.250Z,-0.20
2019-03-01T19:00:25.820Z,-0.20
2019-03-01T19:02:57.513Z,-0.30
2019-03-01T19:05:28.510Z,-0.50
2019-03-01T19:08:00.910Z,-0.50
2019-03-01T19:10:31.380Z,-0.50
2019-03-01T19:13:01.864Z,-0.60
2019-03-01T19:15:32.560Z,-0.70
2019-03-01T19:18:03.131Z,-0.70
2019-03-01T19:20:37.989Z,-0.80
2019-03-01T19:23:09.210Z,-0.80
2019-03-01T19:25:40.759Z,-0.70
2019-03-01T19:28:11.534Z,-0.80
2019-03-01T19:30:42.527Z,-0.80
2019-03-01T19:33:13.023Z,-0.90
2019-03-01T19:35:44.037Z,-0.90
2019-03-01T19:38:14.524Z,-0.90
2019-03-01T19:40:47.183Z,-1.00
2019-03-01T19:43:17.392Z,-1.00
2019-03-01T19:45:48.957Z,-1.10
2019-03-01T19:48:19.491Z,-1.10
2019-03-01T19:50:50.349Z,-1.20
2019-03-01T19:53:21.640Z,-1.20
2019-03-01T19:55:53.039Z,-1.00
2019-03-01T19:58:23.937Z,-1.00
2019-03-01T20:00:54.680Z,-1.00
2019-03-01T20:03:25.365Z,-1.10
2019-03-01T20:05:56.032Z,-1.20
2019-03-01T20:08:29.777Z,-1.20
2019-03-01T20:10:59.460Z,-1.30
2019-03-01T20:13:30.340Z,-1.30
2019-03-01T20:16:00.849Z,-1.40
2019-03-01T20:18:31.452Z,-1.50
2019-03-01T20:21:02.173Z,-1.50
2019-03-01T20:23:32.611Z,-1.50
2019-03-01T20:26:03.242Z,-1.60
2019-03-01T20:28:33.626Z,-1.60
2019-03-01T20:31:04.919Z,-1.70
2019-03-01T20:33:36.198Z,-1.70
2019-03-01T20:36:06.934Z,-1.80
2019-03-01T20:38:40.004Z,-1.80
2019-03-01T20:41:09.784Z,-1.80
2019-03-01T20:43:41.793Z,-1.80
2019-03-01T20:46:12.488Z,-1.90
2019-03-01T20:48:42.929Z,-1.90
2019-03-01T20:51:13.661Z,-2.00
2019-03-01T20:53:45.738Z,-2.00
2019-03-01T20:56:19.824Z,-2.00
2019-03-01T20:58:50.337Z,-2.00
2019-03-01T21:01:20.998Z,-2.00
2019-03-01T21:03:51.474Z,-2.00
2019-03-01T21:06:22.041Z,-2.00
2019-03-01T21:08:54.116Z,-2.10
2019-03-01T21:11:25.360Z,-2.10
2019-03-01T21:13:57.024Z,-2.20
2019-03-01T21:16:27.857Z,-2.10
2019-03-01T21:18:59.780Z,-2.10
2019-03-01T21:21:32.547Z,-2.00
2019-03-01T21:24:02.997Z,-2.00
2019-03-01T21:26:34.060Z,-2.00
2019-03-01T21:29:04.543Z,-2.00
2019-03-01T21:31:35.367Z,-2.10
2019-03-01T21:34:06.852Z,-2.20
2019-03-01T21:36:37.557Z,-2.20
2019-03-01T21:39:08.391Z,-2.30
2019-03-01T21:41:41.471Z,-2.30
2019-03-01T21:44:13.572Z,-2.40
2019-03-01T21:46:43.693Z,-2.40
2019-03-01T21:49:14.075Z,-2.40
2019-03-01T21:51:44.648Z,-2.40
2019-03-01T21:54:16.442Z,-2.50
2019-03-01T21:56:55.949Z,-2.50
2019-03-01T21:59:19.568Z,-2.50
2019-03-01T22:01:49.967Z,-2.50
2019-03-01T22:04:21.760Z,-2.40
2019-03-01T22:06:56.077Z,-2.40
2019-03-01T22:09:25.463Z,-2.40
2019-03-01T22:11:56.171Z,-2.40
2019-03-01T22:14:26.762Z,-2.40
2019-03-01T22:16:57.592Z,-2.40
2019-03-01T22:19:30.563Z,-2.40
2019-03-01T22:22:02.193Z,-2.40
2019-03-01T22:24:34.157Z,-2.40
2019-03-01T22:27:04.867Z,-2.50
2019-03-01T22:29:36.078Z,-2.50
2019-03-01T22:32:07.414Z,-2.60
2019-03-01T22:34:38.696Z,-2.60
2019-03-01T22:37:09.603Z,-2.60
2019-03-01T22:39:42.743Z,-2.70
2019-03-01T22:42:14.347Z,-2.70
2019-03-01T22:44:44.365Z,-2.80
2019-03-01T22:47:14.784Z,-2.80
2019-03-01T22:49:45.259Z,-2.70
2019-03-01T22:52:15.977Z,-2.80
2019-03-01T22:54:52.688Z,-2.80
2019-03-01T22:57:25.953Z,-2.80
2019-03-01T22:59:55.549Z,-2.80
2019-03-01T23:02:26.317Z,-2.90
2019-03-01T23:04:56.840Z,-2.90
2019-03-01T23:07:27.877Z,-2.80
2019-03-01T23:10:01.427Z,-2.80
2019-03-01T23:12:33.785Z,-2.80
2019-03-01T23:15:06.744Z,-2.70
2019-03-01T23:17:39.422Z,-2.80
2019-03-01T23:20:09.996Z,-2.90
2019-03-01T23:22:42.801Z,-3.00
2019-03-01T23:25:12.792Z,-3.00
2019-03-01T23:27:43.681Z,-3.00
2019-03-01T23:30:13.991Z,-3.00
2019-03-01T23:32:44.876Z,-3.10
2019-03-01T23:35:18.105Z,-3.10
2019-03-01T23:37:47.716Z,-3.10
2019-03-01T23:40:18.156Z,-3.10
2019-03-01T23:42:48.740Z,-3.10
2019-03-01T23:45:19.420Z,-3.20
2019-03-01T23:47:52.924Z,-3.10
2019-03-01T23:50:23.371Z,-3.20
2019-03-01T23:52:54.766Z,-3.10
2019-03-01T23:55:25.854Z,-3.20
2019-03-01T23:58:05.536Z,-3.10
